Bertrix, Belgium
Current Conditions -  °F | °C
As of 10:25 AM on Sunday 26 Oct 2014 (Local Time) from EBFS Reporting Station
Broken Clouds Broken Clouds  
Wind Chill: 52°   Ceiling: 3700
Heat Index: 52°   Visibility: 6mi
Dew Point: 50°   Wind: 5mph
Humidity: 94%   Direction: 160°SSE
Pressure: 30.27"   Gusts: NA
Location:  49.86°N, 5.26°E
Report Text: EBFS 260825Z 16004KT 9999 BKN037 11/10 Q1025 BLU
Loading
Personal Weather Stations






























Interactive Weather Map
Tropical Storm Tracking
New forecast layout! Learn more

10-Day Weather Forecast

Advertisements
Track Severe Weather on mobile